sensor_id;sensor_type;location;lat;lon;timestamp;temperature;humidity
17092;DHT22;8661;45.700;4.880;2023-02-22T00:01:53;8.40;99.90
17092;DHT22;8661;45.700;4.880;2023-02-22T00:04:35;8.50;99.90
17092;DHT22;8661;45.700;4.880;2023-02-22T00:07:04;8.40;99.90
17092;DHT22;8661;45.700;4.880;2023-02-22T00:09:31;8.40;99.90
17092;DHT22;8661;45.700;4.880;2023-02-22T00:11:58;8.50;99.90
17092;DHT22;8661;45.700;4.880;2023-02-22T00:14:26;8.50;99.90
17092;DHT22;8661;45.700;4.880;2023-02-22T00:16:53;8.60;99.90
17092;DHT22;8661;45.700;4.880;2023-02-22T00:19:23;8.60;99.90
17092;DHT22;8661;45.700;4.880;2023-02-22T00:21:52;8.60;99.90
17092;DHT22;8661;45.700;4.880;2023-02-22T00:24:19;8.60;99.90
17092;DHT22;8661;45.700;4.880;2023-02-22T00:26:50;8.60;99.90
17092;DHT22;8661;45.700;4.880;2023-02-22T00:29:20;8.60;99.90
17092;DHT22;8661;45.700;4.880;2023-02-22T00:31:49;8.60;99.90
17092;DHT22;8661;45.700;4.880;2023-02-22T00:34:16;8.60;99.90
17092;DHT22;8661;45.700;4.880;2023-02-22T00:36:46;8.60;99.90
17092;DHT22;8661;45.700;4.880;2023-02-22T00:39:13;8.50;99.90
17092;DHT22;8661;45.700;4.880;2023-02-22T00:41:41;8.50;99.90
17092;DHT22;8661;45.700;4.880;2023-02-22T00:44:08;8.50;99.90
17092;DHT22;8661;45.700;4.880;2023-02-22T00:46:35;8.50;99.90
17092;DHT22;8661;45.700;4.880;2023-02-22T00:49:03;8.50;99.90
17092;DHT22;8661;45.700;4.880;2023-02-22T00:51:30;8.50;99.90
17092;DHT22;8661;45.700;4.880;2023-02-22T00:53:58;8.50;99.90
17092;DHT22;8661;45.700;4.880;2023-02-22T00:56:25;8.40;99.90
17092;DHT22;8661;45.700;4.880;2023-02-22T00:58:52;8.30;99.90
17092;DHT22;8661;45.700;4.880;2023-02-22T01:01:19;8.20;99.90
17092;DHT22;8661;45.700;4.880;2023-02-22T01:03:46;8.20;99.90
17092;DHT22;8661;45.700;4.880;2023-02-22T01:06:15;8.10;99.90
17092;DHT22;8661;45.700;4.880;2023-02-22T01:08:43;8.10;99.90
17092;DHT22;8661;45.700;4.880;2023-02-22T01:11:10;8.00;99.90
17092;DHT22;8661;45.700;4.880;2023-02-22T01:13:37;8.00;99.90
17092;DHT22;8661;45.700;4.880;2023-02-22T01:16:05;8.00;99.90
17092;DHT22;8661;45.700;4.880;2023-02-22T01:18:33;8.00;99.90
17092;DHT22;8661;45.700;4.880;2023-02-22T01:21:01;8.00;99.90
17092;DHT22;8661;45.700;4.880;2023-02-22T01:23:30;7.90;99.90
17092;DHT22;8661;45.700;4.880;2023-02-22T01:25:57;7.90;99.90
17092;DHT22;8661;45.700;4.880;2023-02-22T01:28:24;7.90;99.90
17092;DHT22;8661;45.700;4.880;2023-02-22T01:30:51;8.00;99.90
17092;DHT22;8661;45.700;4.880;2023-02-22T01:33:20;7.90;99.90
17092;DHT22;8661;45.700;4.880;2023-02-22T01:35:47;7.90;99.90
17092;DHT22;8661;45.700;4.880;2023-02-22T01:38:15;7.90;99.90
17092;DHT22;8661;45.700;4.880;2023-02-22T01:40:47;7.80;99.90
17092;DHT22;8661;45.700;4.880;2023-02-22T01:43:22;7.80;99.90
17092;DHT22;8661;45.700;4.880;2023-02-22T01:45:54;7.80;99.90
17092;DHT22;8661;45.700;4.880;2023-02-22T01:48:29;7.80;99.90
17092;DHT22;8661;45.700;4.880;2023-02-22T01:51:00;7.80;99.90
17092;DHT22;8661;45.700;4.880;2023-02-22T01:53:31;7.70;99.90
17092;DHT22;8661;45.700;4.880;2023-02-22T01:56:01;7.70;99.90
17092;DHT22;8661;45.700;4.880;2023-02-22T01:58:31;7.70;99.90
17092;DHT22;8661;45.700;4.880;2023-02-22T02:00:59;7.70;99.90
17092;DHT22;8661;45.700;4.880;2023-02-22T02:03:29;7.70;99.90
17092;DHT22;8661;45.700;4.880;2023-02-22T02:06:00;7.70;99.90
17092;DHT22;8661;45.700;4.880;2023-02-22T02:08:34;7.70;99.90
17092;DHT22;8661;45.700;4.880;2023-02-22T02:11:05;7.70;99.90
17092;DHT22;8661;45.700;4.880;2023-02-22T02:13:34;7.70;99.90
17092;DHT22;8661;45.700;4.880;2023-02-22T02:16:01;7.70;99.90
17092;DHT22;8661;45.700;4.880;2023-02-22T02:18:28;7.70;99.90
17092;DHT22;8661;45.700;4.880;2023-02-22T02:21:27;7.80;99.90
17092;DHT22;8661;45.700;4.880;2023-02-22T02:27:17;7.70;99.90
17092;DHT22;8661;45.700;4.880;2023-02-22T02:30:06;7.70;99.90
17092;DHT22;8661;45.700;4.880;2023-02-22T02:32:52;7.70;99.90
17092;DHT22;8661;45.700;4.880;2023-02-22T02:35:28;7.70;99.90
17092;DHT22;8661;45.700;4.880;2023-02-22T02:38:01;7.70;99.90
17092;DHT22;8661;45.700;4.880;2023-02-22T02:40:32;7.80;99.90
17092;DHT22;8661;45.700;4.880;2023-02-22T02:43:06;7.80;99.90
17092;DHT22;8661;45.700;4.880;2023-02-22T02:45:43;7.80;99.90
17092;DHT22;8661;45.700;4.880;2023-02-22T02:48:14;7.80;99.90
17092;DHT22;8661;45.700;4.880;2023-02-22T02:50:45;7.80;99.90
17092;DHT22;8661;45.700;4.880;2023-02-22T02:53:16;7.80;99.90
17092;DHT22;8661;45.700;4.880;2023-02-22T02:55:44;7.70;99.90
17092;DHT22;8661;45.700;4.880;2023-02-22T02:58:17;7.60;99.90
17092;DHT22;8661;45.700;4.880;2023-02-22T03:00:45;7.60;99.90
17092;DHT22;8661;45.700;4.880;2023-02-22T03:03:38;7.60;99.90
17092;DHT22;8661;45.700;4.880;2023-02-22T03:09:29;7.50;99.90
17092;DHT22;8661;45.700;4.880;2023-02-22T03:12:13;7.40;99.90
17092;DHT22;8661;45.700;4.880;2023-02-22T03:14:54;7.30;99.90
17092;DHT22;8661;45.700;4.880;2023-02-22T03:17:31;7.30;99.90
17092;DHT22;8661;45.700;4.880;2023-02-22T03:20:12;7.20;99.90
17092;DHT22;8661;45.700;4.880;2023-02-22T03:22:44;7.20;99.90
17092;DHT22;8661;45.700;4.880;2023-02-22T03:25:18;7.20;99.90
17092;DHT22;8661;45.700;4.880;2023-02-22T03:27:50;7.20;99.90
17092;DHT22;8661;45.700;4.880;2023-02-22T03:30:22;7.20;99.90
17092;DHT22;8661;45.700;4.880;2023-02-22T03:32:55;7.20;99.90
17092;DHT22;8661;45.700;4.880;2023-02-22T03:35:30;7.20;99.90
17092;DHT22;8661;45.700;4.880;2023-02-22T03:38:01;7.20;99.90
17092;DHT22;8661;45.700;4.880;2023-02-22T03:40:32;7.10;99.90
17092;DHT22;8661;45.700;4.880;2023-02-22T03:43:04;7.20;99.90
17092;DHT22;8661;45.700;4.880;2023-02-22T03:45:33;7.20;99.90
17092;DHT22;8661;45.700;4.880;2023-02-22T03:48:04;7.20;99.90
17092;DHT22;8661;45.700;4.880;2023-02-22T03:50:37;7.20;99.90
17092;DHT22;8661;45.700;4.880;2023-02-22T03:53:04;7.10;99.90
17092;DHT22;8661;45.700;4.880;2023-02-22T03:55:33;7.10;99.90
17092;DHT22;8661;45.700;4.880;2023-02-22T03:58:03;7.10;99.90
17092;DHT22;8661;45.700;4.880;2023-02-22T04:00:33;7.00;99.90
17092;DHT22;8661;45.700;4.880;2023-02-22T04:03:01;6.90;99.90
17092;DHT22;8661;45.700;4.880;2023-02-22T04:05:28;6.90;99.90
17092;DHT22;8661;45.700;4.880;2023-02-22T04:07:56;6.90;99.90
17092;DHT22;8661;45.700;4.880;2023-02-22T04:10:23;6.90;99.90
17092;DHT22;8661;45.700;4.880;2023-02-22T04:12:50;6.80;99.90
17092;DHT22;8661;45.700;4.880;2023-02-22T04:15:19;6.80;99.90
17092;DHT22;8661;45.700;4.880;2023-02-22T04:17:47;6.80;99.90
17092;DHT22;8661;45.700;4.880;2023-02-22T04:20:14;6.70;99.90
17092;DHT22;8661;45.700;4.880;2023-02-22T04:22:44;6.60;99.90
17092;DHT22;8661;45.700;4.880;2023-02-22T04:25:13;6.60;99.90
17092;DHT22;8661;45.700;4.880;2023-02-22T04:27:40;6.60;99.90
17092;DHT22;8661;45.700;4.880;2023-02-22T04:30:08;6.50;99.90
17092;DHT22;8661;45.700;4.880;2023-02-22T04:32:53;6.40;99.90
17092;DHT22;8661;45.700;4.880;2023-02-22T04:35:20;6.40;99.90
17092;DHT22;8661;45.700;4.880;2023-02-22T04:37:49;6.40;99.90
17092;DHT22;8661;45.700;4.880;2023-02-22T04:40:18;6.30;99.90
17092;DHT22;8661;45.700;4.880;2023-02-22T04:42:45;6.30;99.90
17092;DHT22;8661;45.700;4.880;2023-02-22T04:45:12;6.40;99.90
17092;DHT22;8661;45.700;4.880;2023-02-22T04:47:39;6.40;99.90
17092;DHT22;8661;45.700;4.880;2023-02-22T04:50:07;6.40;99.90
17092;DHT22;8661;45.700;4.880;2023-02-22T04:52:35;6.40;99.90
17092;DHT22;8661;45.700;4.880;2023-02-22T04:55:02;6.30;99.90
17092;DHT22;8661;45.700;4.880;2023-02-22T04:57:30;6.30;99.90
17092;DHT22;8661;45.700;4.880;2023-02-22T04:59:58;6.30;99.90
17092;DHT22;8661;45.700;4.880;2023-02-22T05:02:25;6.40;99.90
17092;DHT22;8661;45.700;4.880;2023-02-22T05:04:52;6.30;99.90
17092;DHT22;8661;45.700;4.880;2023-02-22T05:07:19;6.40;99.90
17092;DHT22;8661;45.700;4.880;2023-02-22T05:09:46;6.40;99.90
17092;DHT22;8661;45.700;4.880;2023-02-22T05:12:13;6.40;99.90
17092;DHT22;8661;45.700;4.880;2023-02-22T05:14:41;6.40;99.90
17092;DHT22;8661;45.700;4.880;2023-02-22T05:17:09;6.50;99.90
17092;DHT22;8661;45.700;4.880;2023-02-22T05:19:36;6.50;99.90
17092;DHT22;8661;45.700;4.880;2023-02-22T05:22:03;6.50;99.90
17092;DHT22;8661;45.700;4.880;2023-02-22T05:24:30;6.50;99.90
17092;DHT22;8661;45.700;4.880;2023-02-22T05:26:57;6.50;99.90
17092;DHT22;8661;45.700;4.880;2023-02-22T05:29:25;6.60;99.90
17092;DHT22;8661;45.700;4.880;2023-02-22T05:31:53;6.60;99.90
17092;DHT22;8661;45.700;4.880;2023-02-22T05:34:20;6.60;99.90
17092;DHT22;8661;45.700;4.880;2023-02-22T05:36:48;6.50;99.90
17092;DHT22;8661;45.700;4.880;2023-02-22T05:39:15;6.50;99.90
17092;DHT22;8661;45.700;4.880;2023-02-22T05:41:42;6.60;99.90
17092;DHT22;8661;45.700;4.880;2023-02-22T05:44:09;6.50;99.90
17092;DHT22;8661;45.700;4.880;2023-02-22T05:46:36;6.50;99.90
17092;DHT22;8661;45.700;4.880;2023-02-22T05:49:04;6.60;99.90
17092;DHT22;8661;45.700;4.880;2023-02-22T05:51:33;6.60;99.90
17092;DHT22;8661;45.700;4.880;2023-02-22T05:54:02;6.70;99.90
17092;DHT22;8661;45.700;4.880;2023-02-22T05:56:29;6.70;99.90
17092;DHT22;8661;45.700;4.880;2023-02-22T05:58:56;6.70;99.90
17092;DHT22;8661;45.700;4.880;2023-02-22T06:01:24;6.70;99.90
17092;DHT22;8661;45.700;4.880;2023-02-22T06:03:51;6.60;99.90
17092;DHT22;8661;45.700;4.880;2023-02-22T06:06:26;6.60;99.90
17092;DHT22;8661;45.700;4.880;2023-02-22T06:08:56;6.60;99.90
17092;DHT22;8661;45.700;4.880;2023-02-22T06:11:23;6.60;99.90
17092;DHT22;8661;45.700;4.880;2023-02-22T06:13:50;6.60;99.90
17092;DHT22;8661;45.700;4.880;2023-02-22T06:16:18;6.70;99.90
17092;DHT22;8661;45.700;4.880;2023-02-22T06:18:45;6.80;99.90
17092;DHT22;8661;45.700;4.880;2023-02-22T06:21:12;6.90;99.90
17092;DHT22;8661;45.700;4.880;2023-02-22T06:23:41;6.80;99.90
17092;DHT22;8661;45.700;4.880;2023-02-22T06:26:08;6.80;99.90
17092;DHT22;8661;45.700;4.880;2023-02-22T06:28:34;6.80;99.90
17092;DHT22;8661;45.700;4.880;2023-02-22T06:31:02;6.80;99.90
17092;DHT22;8661;45.700;4.880;2023-02-22T06:33:29;6.80;99.90
17092;DHT22;8661;45.700;4.880;2023-02-22T06:35:56;6.80;99.90
17092;DHT22;8661;45.700;4.880;2023-02-22T06:38:24;6.80;99.90
17092;DHT22;8661;45.700;4.880;2023-02-22T06:40:53;6.90;99.90
17092;DHT22;8661;45.700;4.880;2023-02-22T06:43:20;6.90;99.90
17092;DHT22;8661;45.700;4.880;2023-02-22T06:45:48;6.90;99.90
17092;DHT22;8661;45.700;4.880;2023-02-22T06:48:16;6.90;99.90
17092;DHT22;8661;45.700;4.880;2023-02-22T06:50:43;7.00;99.90
17092;DHT22;8661;45.700;4.880;2023-02-22T06:53:10;7.10;99.90
17092;DHT22;8661;45.700;4.880;2023-02-22T06:55:37;7.10;99.90
17092;DHT22;8661;45.700;4.880;2023-02-22T06:58:05;7.10;99.90
17092;DHT22;8661;45.700;4.880;2023-02-22T07:00:32;7.10;99.90
17092;DHT22;8661;45.700;4.880;2023-02-22T07:02:59;7.20;99.90
17092;DHT22;8661;45.700;4.880;2023-02-22T07:05:27;7.20;99.90
17092;DHT22;8661;45.700;4.880;2023-02-22T07:08:01;7.20;99.90
17092;DHT22;8661;45.700;4.880;2023-02-22T07:10:30;7.30;99.90
17092;DHT22;8661;45.700;4.880;2023-02-22T07:12:58;7.40;99.90
17092;DHT22;8661;45.700;4.880;2023-02-22T07:15:28;7.40;99.90
17092;DHT22;8661;45.700;4.880;2023-02-22T07:17:57;7.50;99.90
17092;DHT22;8661;45.700;4.880;2023-02-22T07:20:26;7.50;99.90
17092;DHT22;8661;45.700;4.880;2023-02-22T07:22:54;7.60;99.90
17092;DHT22;8661;45.700;4.880;2023-02-22T07:25:22;7.60;99.90
17092;DHT22;8661;45.700;4.880;2023-02-22T07:27:50;7.80;99.90
17092;DHT22;8661;45.700;4.880;2023-02-22T07:30:20;7.80;99.90
17092;DHT22;8661;45.700;4.880;2023-02-22T07:32:52;7.80;99.90
17092;DHT22;8661;45.700;4.880;2023-02-22T07:35:21;7.80;99.90
17092;DHT22;8661;45.700;4.880;2023-02-22T07:37:50;7.90;99.90
17092;DHT22;8661;45.700;4.880;2023-02-22T07:40:18;8.00;99.90
17092;DHT22;8661;45.700;4.880;2023-02-22T07:42:53;8.00;99.90
17092;DHT22;8661;45.700;4.880;2023-02-22T07:45:21;8.10;99.90
17092;DHT22;8661;45.700;4.880;2023-02-22T07:47:50;8.20;99.90
17092;DHT22;8661;45.700;4.880;2023-02-22T07:50:19;8.20;99.90
17092;DHT22;8661;45.700;4.880;2023-02-22T07:52:47;8.30;99.90
17092;DHT22;8661;45.700;4.880;2023-02-22T07:55:15;8.40;99.90
17092;DHT22;8661;45.700;4.880;2023-02-22T07:57:44;8.50;99.90
17092;DHT22;8661;45.700;4.880;2023-02-22T08:00:13;8.50;99.90
17092;DHT22;8661;45.700;4.880;2023-02-22T08:02:40;8.60;99.90
17092;DHT22;8661;45.700;4.880;2023-02-22T08:05:09;8.70;99.90
17092;DHT22;8661;45.700;4.880;2023-02-22T08:07:37;8.80;99.90
17092;DHT22;8661;45.700;4.880;2023-02-22T08:10:05;8.90;99.90
17092;DHT22;8661;45.700;4.880;2023-02-22T08:12:36;9.00;99.90
17092;DHT22;8661;45.700;4.880;2023-02-22T08:15:06;9.00;99.90
17092;DHT22;8661;45.700;4.880;2023-02-22T08:17:33;9.00;99.90
17092;DHT22;8661;45.700;4.880;2023-02-22T08:20:00;9.00;99.90
17092;DHT22;8661;45.700;4.880;2023-02-22T08:22:34;9.00;99.90
17092;DHT22;8661;45.700;4.880;2023-02-22T08:25:01;9.00;99.90
17092;DHT22;8661;45.700;4.880;2023-02-22T08:27:29;9.00;99.90
17092;DHT22;8661;45.700;4.880;2023-02-22T08:30:03;9.20;99.90
17092;DHT22;8661;45.700;4.880;2023-02-22T08:32:35;9.30;99.90
17092;DHT22;8661;45.700;4.880;2023-02-22T08:35:02;9.30;99.90
17092;DHT22;8661;45.700;4.880;2023-02-22T08:37:31;9.30;99.90
17092;DHT22;8661;45.700;4.880;2023-02-22T08:39:58;9.30;99.90
17092;DHT22;8661;45.700;4.880;2023-02-22T08:42:25;9.30;99.90
17092;DHT22;8661;45.700;4.880;2023-02-22T08:44:55;9.30;99.90
17092;DHT22;8661;45.700;4.880;2023-02-22T08:47:22;9.40;99.90
17092;DHT22;8661;45.700;4.880;2023-02-22T08:49:49;9.40;99.90
17092;DHT22;8661;45.700;4.880;2023-02-22T08:52:16;9.40;99.90
17092;DHT22;8661;45.700;4.880;2023-02-22T08:54:46;9.50;99.90
17092;DHT22;8661;45.700;4.880;2023-02-22T08:57:20;9.60;99.90
17092;DHT22;8661;45.700;4.880;2023-02-22T08:59:48;9.70;99.90
17092;DHT22;8661;45.700;4.880;2023-02-22T09:02:18;9.80;99.90
17092;DHT22;8661;45.700;4.880;2023-02-22T09:04:49;9.80;99.90
17092;DHT22;8661;45.700;4.880;2023-02-22T09:07:17;10.00;99.90
17092;DHT22;8661;45.700;4.880;2023-02-22T09:09:45;10.00;99.90
17092;DHT22;8661;45.700;4.880;2023-02-22T09:12:12;10.10;99.90
17092;DHT22;8661;45.700;4.880;2023-02-22T09:14:40;10.20;99.90
17092;DHT22;8661;45.700;4.880;2023-02-22T09:17:08;10.30;99.90
17092;DHT22;8661;45.700;4.880;2023-02-22T09:19:35;10.30;99.90
17092;DHT22;8661;45.700;4.880;2023-02-22T09:22:01;10.40;99.90
17092;DHT22;8661;45.700;4.880;2023-02-22T09:24:28;10.40;99.90
17092;DHT22;8661;45.700;4.880;2023-02-22T09:26:57;10.50;99.90
17092;DHT22;8661;45.700;4.880;2023-02-22T09:29:25;10.50;99.90
17092;DHT22;8661;45.700;4.880;2023-02-22T09:31:54;10.50;99.90
17092;DHT22;8661;45.700;4.880;2023-02-22T09:34:22;10.60;99.90
17092;DHT22;8661;45.700;4.880;2023-02-22T09:36:54;10.50;99.90
17092;DHT22;8661;45.700;4.880;2023-02-22T09:39:21;10.50;99.90
17092;DHT22;8661;45.700;4.880;2023-02-22T09:41:55;10.50;99.90
17092;DHT22;8661;45.700;4.880;2023-02-22T09:44:35;10.50;99.90
17092;DHT22;8661;45.700;4.880;2023-02-22T09:47:03;10.50;99.90
17092;DHT22;8661;45.700;4.880;2023-02-22T09:49:38;10.50;99.90
17092;DHT22;8661;45.700;4.880;2023-02-22T09:52:11;10.50;99.90
17092;DHT22;8661;45.700;4.880;2023-02-22T09:54:42;10.40;99.90
17092;DHT22;8661;45.700;4.880;2023-02-22T09:57:13;10.40;99.90
17092;DHT22;8661;45.700;4.880;2023-02-22T09:59:45;10.50;99.90
17092;DHT22;8661;45.700;4.880;2023-02-22T10:02:20;10.40;99.90
17092;DHT22;8661;45.700;4.880;2023-02-22T10:04:53;10.40;99.90
17092;DHT22;8661;45.700;4.880;2023-02-22T10:07:27;10.50;99.90
17092;DHT22;8661;45.700;4.880;2023-02-22T10:09:56;10.40;99.90
17092;DHT22;8661;45.700;4.880;2023-02-22T10:12:33;10.50;99.90
17092;DHT22;8661;45.700;4.880;2023-02-22T10:15:30;10.50;99.90
17092;DHT22;8661;45.700;4.880;2023-02-22T10:18:13;10.50;99.90
17092;DHT22;8661;45.700;4.880;2023-02-22T10:20:51;10.60;99.90
17092;DHT22;8661;45.700;4.880;2023-02-22T10:23:26;10.50;99.90
17092;DHT22;8661;45.700;4.880;2023-02-22T10:26:00;10.50;99.90
17092;DHT22;8661;45.700;4.880;2023-02-22T10:28:36;10.60;99.90
17092;DHT22;8661;45.700;4.880;2023-02-22T10:31:08;10.60;99.90
17092;DHT22;8661;45.700;4.880;2023-02-22T10:33:45;10.60;99.90
17092;DHT22;8661;45.700;4.880;2023-02-22T10:36:16;10.60;99.90
17092;DHT22;8661;45.700;4.880;2023-02-22T10:38:49;10.60;99.90
17092;DHT22;8661;45.700;4.880;2023-02-22T10:41:22;10.60;99.90
17092;DHT22;8661;45.700;4.880;2023-02-22T10:43:49;10.60;99.90
17092;DHT22;8661;45.700;4.880;2023-02-22T10:46:20;10.60;99.90
17092;DHT22;8661;45.700;4.880;2023-02-22T10:48:51;10.60;99.90
17092;DHT22;8661;45.700;4.880;2023-02-22T10:51:20;10.60;99.90
17092;DHT22;8661;45.700;4.880;2023-02-22T10:53:57;10.60;99.90
17092;DHT22;8661;45.700;4.880;2023-02-22T10:56:26;10.60;99.90
17092;DHT22;8661;45.700;4.880;2023-02-22T10:58:55;10.60;99.90
17092;DHT22;8661;45.700;4.880;2023-02-22T11:01:35;10.60;99.90
17092;DHT22;8661;45.700;4.880;2023-02-22T11:04:09;10.60;99.90
17092;DHT22;8661;45.700;4.880;2023-02-22T11:06:38;10.60;99.90
17092;DHT22;8661;45.700;4.880;2023-02-22T11:09:11;10.60;99.90
17092;DHT22;8661;45.700;4.880;2023-02-22T11:11:39;10.60;99.90
17092;DHT22;8661;45.700;4.880;2023-02-22T11:14:07;10.60;99.90
17092;DHT22;8661;45.700;4.880;2023-02-22T11:16:39;10.60;99.90
17092;DHT22;8661;45.700;4.880;2023-02-22T11:19:25;10.70;99.90
17092;DHT22;8661;45.700;4.880;2023-02-22T11:21:56;10.70;99.90
17092;DHT22;8661;45.700;4.880;2023-02-22T11:24:24;10.70;99.90
17092;DHT22;8661;45.700;4.880;2023-02-22T11:26:54;10.80;99.90
17092;DHT22;8661;45.700;4.880;2023-02-22T11:29:26;10.90;99.90
17092;DHT22;8661;45.700;4.880;2023-02-22T11:32:01;10.90;99.90
17092;DHT22;8661;45.700;4.880;2023-02-22T11:34:32;10.90;99.90
17092;DHT22;8661;45.700;4.880;2023-02-22T11:37:16;10.90;99.90
17092;DHT22;8661;45.700;4.880;2023-02-22T11:39:44;11.00;99.90
17092;DHT22;8661;45.700;4.880;2023-02-22T11:42:20;11.00;99.90
17092;DHT22;8661;45.700;4.880;2023-02-22T11:44:49;11.10;99.90
17092;DHT22;8661;45.700;4.880;2023-02-22T11:47:34;11.10;99.90
17092;DHT22;8661;45.700;4.880;2023-02-22T11:50:09;11.20;99.90
17092;DHT22;8661;45.700;4.880;2023-02-22T11:52:45;11.20;99.90
17092;DHT22;8661;45.700;4.880;2023-02-22T11:55:20;11.20;99.90
17092;DHT22;8661;45.700;4.880;2023-02-22T11:57:57;11.20;99.90
17092;DHT22;8661;45.700;4.880;2023-02-22T12:00:35;11.30;99.90
17092;DHT22;8661;45.700;4.880;2023-02-22T12:03:26;11.30;99.90
17092;DHT22;8661;45.700;4.880;2023-02-22T12:06:03;11.40;99.90
17092;DHT22;8661;45.700;4.880;2023-02-22T12:08:42;11.40;99.90
17092;DHT22;8661;45.700;4.880;2023-02-22T12:11:16;11.50;99.90
17092;DHT22;8661;45.700;4.880;2023-02-22T12:13:53;11.60;99.90
17092;DHT22;8661;45.700;4.880;2023-02-22T12:16:30;11.60;99.90
17092;DHT22;8661;45.700;4.880;2023-02-22T12:19:10;11.80;99.90
17092;DHT22;8661;45.700;4.880;2023-02-22T12:21:41;11.80;99.90
17092;DHT22;8661;45.700;4.880;2023-02-22T12:24:14;11.90;99.90
17092;DHT22;8661;45.700;4.880;2023-02-22T12:26:47;11.90;99.90
17092;DHT22;8661;45.700;4.880;2023-02-22T12:29:23;11.90;99.90
17092;DHT22;8661;45.700;4.880;2023-02-22T12:31:55;11.90;99.90
17092;DHT22;8661;45.700;4.880;2023-02-22T12:34:31;11.80;99.90
17092;DHT22;8661;45.700;4.880;2023-02-22T12:37:08;11.80;99.90
17092;DHT22;8661;45.700;4.880;2023-02-22T12:39:45;11.90;99.90
17092;DHT22;8661;45.700;4.880;2023-02-22T12:42:17;11.90;99.90
17092;DHT22;8661;45.700;4.880;2023-02-22T12:44:55;12.00;99.90
17092;DHT22;8661;45.700;4.880;2023-02-22T12:47:30;12.00;99.90
17092;DHT22;8661;45.700;4.880;2023-02-22T12:50:04;12.10;99.90
17092;DHT22;8661;45.700;4.880;2023-02-22T12:52:41;12.10;99.90
17092;DHT22;8661;45.700;4.880;2023-02-22T12:55:12;12.00;99.90
17092;DHT22;8661;45.700;4.880;2023-02-22T12:57:46;12.00;99.90
17092;DHT22;8661;45.700;4.880;2023-02-22T13:00:17;12.10;99.90
17092;DHT22;8661;45.700;4.880;2023-02-22T13:02:55;12.00;99.90
17092;DHT22;8661;45.700;4.880;2023-02-22T13:05:26;12.00;99.90
17092;DHT22;8661;45.700;4.880;2023-02-22T13:08:05;12.00;99.90
17092;DHT22;8661;45.700;4.880;2023-02-22T13:10:53;12.00;99.90
17092;DHT22;8661;45.700;4.880;2023-02-22T13:13:29;12.10;99.90
17092;DHT22;8661;45.700;4.880;2023-02-22T13:16:06;12.10;99.90
17092;DHT22;8661;45.700;4.880;2023-02-22T13:18:40;12.10;99.90
17092;DHT22;8661;45.700;4.880;2023-02-22T13:21:16;12.10;99.90
17092;DHT22;8661;45.700;4.880;2023-02-22T13:23:52;12.00;99.90
17092;DHT22;8661;45.700;4.880;2023-02-22T13:26:23;12.00;99.90
17092;DHT22;8661;45.700;4.880;2023-02-22T13:28:56;12.10;99.90
17092;DHT22;8661;45.700;4.880;2023-02-22T13:31:49;12.10;99.90
17092;DHT22;8661;45.700;4.880;2023-02-22T13:34:33;12.30;99.90
17092;DHT22;8661;45.700;4.880;2023-02-22T13:37:18;12.50;99.90
17092;DHT22;8661;45.700;4.880;2023-02-22T13:46:03;13.70;99.90
17092;DHT22;8661;45.700;4.880;2023-02-22T13:49:01;14.10;99.90
17092;DHT22;8661;45.700;4.880;2023-02-22T13:51:42;14.30;99.90
17092;DHT22;8661;45.700;4.880;2023-02-22T13:54:17;14.20;99.90
17092;DHT22;8661;45.700;4.880;2023-02-22T13:56:46;14.40;99.90
17092;DHT22;8661;45.700;4.880;2023-02-22T13:59:24;14.30;99.90
17092;DHT22;8661;45.700;4.880;2023-02-22T14:01:52;14.50;99.90
17092;DHT22;8661;45.700;4.880;2023-02-22T14:04:43;14.70;99.90
17092;DHT22;8661;45.700;4.880;2023-02-22T14:10:46;14.90;99.90
17092;DHT22;8661;45.700;4.880;2023-02-22T14:13:14;14.90;99.90
17092;DHT22;8661;45.700;4.880;2023-02-22T14:16:16;14.90;99.90
17092;DHT22;8661;45.700;4.880;2023-02-22T14:18:44;15.20;99.90
17092;DHT22;8661;45.700;4.880;2023-02-22T14:21:14;15.20;99.90
17092;DHT22;8661;45.700;4.880;2023-02-22T14:23:44;15.30;99.90
17092;DHT22;8661;45.700;4.880;2023-02-22T14:26:15;15.50;99.90
17092;DHT22;8661;45.700;4.880;2023-02-22T14:28:50;15.60;99.90
17092;DHT22;8661;45.700;4.880;2023-02-22T14:31:20;15.50;99.90
17092;DHT22;8661;45.700;4.880;2023-02-22T14:33:57;15.50;99.90
17092;DHT22;8661;45.700;4.880;2023-02-22T14:36:28;15.30;99.90
17092;DHT22;8661;45.700;4.880;2023-02-22T14:39:02;15.20;99.90
17092;DHT22;8661;45.700;4.880;2023-02-22T14:41:32;15.10;99.90
17092;DHT22;8661;45.700;4.880;2023-02-22T14:44:02;15.00;99.90
17092;DHT22;8661;45.700;4.880;2023-02-22T14:46:33;14.90;99.90
17092;DHT22;8661;45.700;4.880;2023-02-22T14:49:03;14.80;99.90
17092;DHT22;8661;45.700;4.880;2023-02-22T14:51:40;14.70;99.90
17092;DHT22;8661;45.700;4.880;2023-02-22T14:54:11;14.60;99.90
17092;DHT22;8661;45.700;4.880;2023-02-22T14:56:49;14.40;99.90
17092;DHT22;8661;45.700;4.880;2023-02-22T14:59:20;14.30;99.90
17092;DHT22;8661;45.700;4.880;2023-02-22T15:01:48;14.20;99.90
17092;DHT22;8661;45.700;4.880;2023-02-22T15:04:17;14.10;99.90
17092;DHT22;8661;45.700;4.880;2023-02-22T15:06:45;14.00;99.90
17092;DHT22;8661;45.700;4.880;2023-02-22T15:09:14;13.90;99.90
17092;DHT22;8661;45.700;4.880;2023-02-22T15:11:50;13.80;99.90
17092;DHT22;8661;45.700;4.880;2023-02-22T15:14:19;13.70;99.90
17092;DHT22;8661;45.700;4.880;2023-02-22T15:16:48;13.60;99.90
17092;DHT22;8661;45.700;4.880;2023-02-22T15:19:21;13.50;99.90
17092;DHT22;8661;45.700;4.880;2023-02-22T15:21:52;13.50;99.90
17092;DHT22;8661;45.700;4.880;2023-02-22T15:24:22;13.40;99.90
17092;DHT22;8661;45.700;4.880;2023-02-22T15:26:52;13.40;99.90
17092;DHT22;8661;45.700;4.880;2023-02-22T15:29:21;13.30;99.90
17092;DHT22;8661;45.700;4.880;2023-02-22T15:31:50;13.30;99.90
17092;DHT22;8661;45.700;4.880;2023-02-22T15:34:20;13.30;99.90
17092;DHT22;8661;45.700;4.880;2023-02-22T15:36:50;13.30;99.90
17092;DHT22;8661;45.700;4.880;2023-02-22T15:39:21;13.20;99.90
17092;DHT22;8661;45.700;4.880;2023-02-22T15:42:07;13.30;99.90
17092;DHT22;8661;45.700;4.880;2023-02-22T15:44:39;13.30;99.90
17092;DHT22;8661;45.700;4.880;2023-02-22T15:47:08;13.30;99.90
17092;DHT22;8661;45.700;4.880;2023-02-22T15:49:37;13.30;99.90
17092;DHT22;8661;45.700;4.880;2023-02-22T15:52:07;13.30;99.90
17092;DHT22;8661;45.700;4.880;2023-02-22T15:54:42;13.30;99.90
17092;DHT22;8661;45.700;4.880;2023-02-22T15:57:14;13.30;99.90
17092;DHT22;8661;45.700;4.880;2023-02-22T15:59:46;13.30;99.90
17092;DHT22;8661;45.700;4.880;2023-02-22T16:02:30;13.30;99.90
17092;DHT22;8661;45.700;4.880;2023-02-22T16:05:00;13.30;99.90
17092;DHT22;8661;45.700;4.880;2023-02-22T16:07:28;13.30;99.90
17092;DHT22;8661;45.700;4.880;2023-02-22T16:09:56;13.20;99.90
17092;DHT22;8661;45.700;4.880;2023-02-22T16:12:26;13.20;99.90
17092;DHT22;8661;45.700;4.880;2023-02-22T16:14:54;13.20;99.90
17092;DHT22;8661;45.700;4.880;2023-02-22T16:17:28;13.10;99.90
17092;DHT22;8661;45.700;4.880;2023-02-22T16:19:58;13.10;99.90
17092;DHT22;8661;45.700;4.880;2023-02-22T16:22:27;13.00;99.90
17092;DHT22;8661;45.700;4.880;2023-02-22T16:25:13;13.00;99.90
17092;DHT22;8661;45.700;4.880;2023-02-22T16:27:44;12.90;99.90
17092;DHT22;8661;45.700;4.880;2023-02-22T16:30:25;12.80;99.90
17092;DHT22;8661;45.700;4.880;2023-02-22T16:32:54;12.80;99.90
17092;DHT22;8661;45.700;4.880;2023-02-22T16:35:23;12.80;99.90
17092;DHT22;8661;45.700;4.880;2023-02-22T16:37:56;12.70;99.90